sensor_id;sensor_type;location;lat;lon;timestamp;temperature;humidity
85052;DHT22;75382;46.706;12.340;2024-03-08T00:00:34;5.599999904632568;64.0999984741211
85052;DHT22;75382;46.706;12.340;2024-03-08T00:01:31;5.599999904632568;64.0999984741211
85052;DHT22;75382;46.706;12.340;2024-03-08T00:02:33;5.599999904632568;64.0
85052;DHT22;75382;46.706;12.340;2024-03-08T00:03:34;5.599999904632568;63.900001525878906
85052;DHT22;75382;46.706;12.340;2024-03-08T00:04:30;5.599999904632568;63.900001525878906
85052;DHT22;75382;46.706;12.340;2024-03-08T00:05:30;5.599999904632568;64.0
85052;DHT22;75382;46.706;12.340;2024-03-08T00:06:31;5.599999904632568;63.900001525878906
85052;DHT22;75382;46.706;12.340;2024-03-08T00:07:30;5.599999904632568;64.0
85052;DHT22;75382;46.706;12.340;2024-03-08T00:08:32;5.599999904632568;64.0
85052;DHT22;75382;46.706;12.340;2024-03-08T00:09:32;5.599999904632568;64.0999984741211
85052;DHT22;75382;46.706;12.340;2024-03-08T00:10:31;5.599999904632568;64.0999984741211
85052;DHT22;75382;46.706;12.340;2024-03-08T00:11:32;5.599999904632568;64.0
85052;DHT22;75382;46.706;12.340;2024-03-08T00:12:32;5.599999904632568;64.0
85052;DHT22;75382;46.706;12.340;2024-03-08T00:13:30;5.599999904632568;63.900001525878906
85052;DHT22;75382;46.706;12.340;2024-03-08T00:14:31;5.599999904632568;63.599998474121094
85052;DHT22;75382;46.706;12.340;2024-03-08T00:15:33;5.599999904632568;64.0
85052;DHT22;75382;46.706;12.340;2024-03-08T00:16:31;5.599999904632568;64.0
85052;DHT22;75382;46.706;12.340;2024-03-08T00:17:30;5.5;63.900001525878906
85052;DHT22;75382;46.706;12.340;2024-03-08T00:18:31;5.599999904632568;64.0
85052;DHT22;75382;46.706;12.340;2024-03-08T00:19:31;5.5;63.900001525878906
85052;DHT22;75382;46.706;12.340;2024-03-08T00:20:30;5.599999904632568;63.900001525878906
85052;DHT22;75382;46.706;12.340;2024-03-08T00:21:33;5.5;63.900001525878906
85052;DHT22;75382;46.706;12.340;2024-03-08T00:22:31;5.5;63.900001525878906
85052;DHT22;75382;46.706;12.340;2024-03-08T00:23:30;5.5;64.0
85052;DHT22;75382;46.706;12.340;2024-03-08T00:24:32;5.599999904632568;64.0
85052;DHT22;75382;46.706;12.340;2024-03-08T00:25:31;5.5;64.0
85052;DHT22;75382;46.706;12.340;2024-03-08T00:26:31;5.5;64.0
85052;DHT22;75382;46.706;12.340;2024-03-08T00:27:32;5.5;63.900001525878906
85052;DHT22;75382;46.706;12.340;2024-03-08T00:28:33;5.5;63.900001525878906
85052;DHT22;75382;46.706;12.340;2024-03-08T00:29:31;5.5;63.900001525878906
85052;DHT22;75382;46.706;12.340;2024-03-08T00:30:32;5.5;63.900001525878906
85052;DHT22;75382;46.706;12.340;2024-03-08T00:31:32;5.5;63.900001525878906
85052;DHT22;75382;46.706;12.340;2024-03-08T00:32:31;5.5;63.900001525878906
85052;DHT22;75382;46.706;12.340;2024-03-08T00:33:36;5.400000095367432;63.900001525878906
85052;DHT22;75382;46.706;12.340;2024-03-08T00:34:31;5.5;63.900001525878906
85052;DHT22;75382;46.706;12.340;2024-03-08T00:35:31;5.5;63.900001525878906
85052;DHT22;75382;46.706;12.340;2024-03-08T00:36:31;5.5;63.79999923706055
85052;DHT22;75382;46.706;12.340;2024-03-08T00:37:30;5.5;63.900001525878906
85052;DHT22;75382;46.706;12.340;2024-03-08T00:38:30;5.400000095367432;63.900001525878906
85052;DHT22;75382;46.706;12.340;2024-03-08T00:39:32;5.400000095367432;63.900001525878906
85052;DHT22;75382;46.706;12.340;2024-03-08T00:40:31;5.400000095367432;63.900001525878906
85052;DHT22;75382;46.706;12.340;2024-03-08T00:41:30;5.400000095367432;63.900001525878906
85052;DHT22;75382;46.706;12.340;2024-03-08T00:42:31;5.400000095367432;63.79999923706055
85052;DHT22;75382;46.706;12.340;2024-03-08T00:43:31;5.400000095367432;63.79999923706055
85052;DHT22;75382;46.706;12.340;2024-03-08T00:44:31;5.400000095367432;63.79999923706055
85052;DHT22;75382;46.706;12.340;2024-03-08T00:45:31;5.400000095367432;63.79999923706055
85052;DHT22;75382;46.706;12.340;2024-03-08T00:46:33;5.400000095367432;63.79999923706055
85052;DHT22;75382;46.706;12.340;2024-03-08T00:47:31;5.400000095367432;63.79999923706055
85052;DHT22;75382;46.706;12.340;2024-03-08T00:48:33;5.400000095367432;63.79999923706055
85052;DHT22;75382;46.706;12.340;2024-03-08T00:49:31;5.400000095367432;63.79999923706055
85052;DHT22;75382;46.706;12.340;2024-03-08T00:50:31;5.400000095367432;63.79999923706055
85052;DHT22;75382;46.706;12.340;2024-03-08T00:51:30;5.400000095367432;63.79999923706055
85052;DHT22;75382;46.706;12.340;2024-03-08T00:52:31;5.400000095367432;63.400001525878906
85052;DHT22;75382;46.706;12.340;2024-03-08T00:53:32;5.400000095367432;63.79999923706055
85052;DHT22;75382;46.706;12.340;2024-03-08T00:54:33;5.400000095367432;63.79999923706055
85052;DHT22;75382;46.706;12.340;2024-03-08T00:55:31;5.400000095367432;63.70000076293945
85052;DHT22;75382;46.706;12.340;2024-03-08T00:56:31;5.400000095367432;63.70000076293945
85052;DHT22;75382;46.706;12.340;2024-03-08T00:57:31;5.400000095367432;63.599998474121094
85052;DHT22;75382;46.706;12.340;2024-03-08T00:58:32;5.400000095367432;63.70000076293945
85052;DHT22;75382;46.706;12.340;2024-03-08T00:59:31;5.300000190734863;63.599998474121094
85052;DHT22;75382;46.706;12.340;2024-03-08T01:00:31;5.400000095367432;63.599998474121094
85052;DHT22;75382;46.706;12.340;2024-03-08T01:01:31;5.300000190734863;63.599998474121094
85052;DHT22;75382;46.706;12.340;2024-03-08T01:02:31;5.400000095367432;63.70000076293945
85052;DHT22;75382;46.706;12.340;2024-03-08T01:03:33;5.300000190734863;63.599998474121094
85052;DHT22;75382;46.706;12.340;2024-03-08T01:04:30;5.300000190734863;63.599998474121094
85052;DHT22;75382;46.706;12.340;2024-03-08T01:05:34;5.300000190734863;63.70000076293945
85052;DHT22;75382;46.706;12.340;2024-03-08T01:06:31;5.300000190734863;63.599998474121094
85052;DHT22;75382;46.706;12.340;2024-03-08T01:07:32;5.300000190734863;63.70000076293945
85052;DHT22;75382;46.706;12.340;2024-03-08T01:08:30;5.300000190734863;63.70000076293945
85052;DHT22;75382;46.706;12.340;2024-03-08T01:09:31;5.300000190734863;63.70000076293945
85052;DHT22;75382;46.706;12.340;2024-03-08T01:10:31;5.300000190734863;63.70000076293945
85052;DHT22;75382;46.706;12.340;2024-03-08T01:11:30;5.300000190734863;63.70000076293945
85052;DHT22;75382;46.706;12.340;2024-03-08T01:12:31;5.300000190734863;63.70000076293945
85052;DHT22;75382;46.706;12.340;2024-03-08T01:13:31;5.300000190734863;63.599998474121094
85052;DHT22;75382;46.706;12.340;2024-03-08T01:14:32;5.300000190734863;63.599998474121094
85052;DHT22;75382;46.706;12.340;2024-03-08T01:15:31;5.300000190734863;63.599998474121094
85052;DHT22;75382;46.706;12.340;2024-03-08T01:16:31;5.300000190734863;63.70000076293945
85052;DHT22;75382;46.706;12.340;2024-03-08T01:17:31;5.300000190734863;63.70000076293945
85052;DHT22;75382;46.706;12.340;2024-03-08T01:18:30;5.199999809265137;63.599998474121094
85052;DHT22;75382;46.706;12.340;2024-03-08T01:19:33;5.300000190734863;63.70000076293945
85052;DHT22;75382;46.706;12.340;2024-03-08T01:20:31;5.199999809265137;63.599998474121094
85052;DHT22;75382;46.706;12.340;2024-03-08T01:21:31;5.300000190734863;63.70000076293945
85052;DHT22;75382;46.706;12.340;2024-03-08T01:22:31;5.300000190734863;63.70000076293945
85052;DHT22;75382;46.706;12.340;2024-03-08T01:23:31;5.300000190734863;63.70000076293945
85052;DHT22;75382;46.706;12.340;2024-03-08T01:24:31;5.300000190734863;63.599998474121094
85052;DHT22;75382;46.706;12.340;2024-03-08T01:25:31;5.300000190734863;63.599998474121094
85052;DHT22;75382;46.706;12.340;2024-03-08T01:26:31;5.300000190734863;63.70000076293945
85052;DHT22;75382;46.706;12.340;2024-03-08T01:27:30;5.300000190734863;63.70000076293945
85052;DHT22;75382;46.706;12.340;2024-03-08T01:28:31;5.300000190734863;63.70000076293945
85052;DHT22;75382;46.706;12.340;2024-03-08T01:29:31;5.300000190734863;63.70000076293945
85052;DHT22;75382;46.706;12.340;2024-03-08T01:30:30;5.199999809265137;63.599998474121094
85052;DHT22;75382;46.706;12.340;2024-03-08T01:31:32;5.199999809265137;63.70000076293945
85052;DHT22;75382;46.706;12.340;2024-03-08T01:32:30;5.199999809265137;63.70000076293945
85052;DHT22;75382;46.706;12.340;2024-03-08T01:33:31;5.199999809265137;63.70000076293945
85052;DHT22;75382;46.706;12.340;2024-03-08T01:34:31;5.300000190734863;63.79999923706055
85052;DHT22;75382;46.706;12.340;2024-03-08T01:35:31;5.300000190734863;63.79999923706055
85052;DHT22;75382;46.706;12.340;2024-03-08T01:36:31;5.300000190734863;63.79999923706055
85052;DHT22;75382;46.706;12.340;2024-03-08T01:37:31;5.199999809265137;63.70000076293945
85052;DHT22;75382;46.706;12.340;2024-03-08T01:38:31;5.300000190734863;63.70000076293945
85052;DHT22;75382;46.706;12.340;2024-03-08T01:39:31;5.300000190734863;63.79999923706055
85052;DHT22;75382;46.706;12.340;2024-03-08T01:40:31;5.199999809265137;63.70000076293945
85052;DHT22;75382;46.706;12.340;2024-03-08T01:41:31;5.199999809265137;63.79999923706055
85052;DHT22;75382;46.706;12.340;2024-03-08T01:42:31;5.199999809265137;63.900001525878906
85052;DHT22;75382;46.706;12.340;2024-03-08T01:43:31;5.300000190734863;63.900001525878906
85052;DHT22;75382;46.706;12.340;2024-03-08T01:44:31;5.199999809265137;63.79999923706055
85052;DHT22;75382;46.706;12.340;2024-03-08T01:45:31;5.199999809265137;63.900001525878906
85052;DHT22;75382;46.706;12.340;2024-03-08T01:46:32;5.199999809265137;63.79999923706055
85052;DHT22;75382;46.706;12.340;2024-03-08T01:47:31;5.199999809265137;63.900001525878906
85052;DHT22;75382;46.706;12.340;2024-03-08T01:48:31;5.199999809265137;63.900001525878906
85052;DHT22;75382;46.706;12.340;2024-03-08T01:49:31;5.199999809265137;63.79999923706055
85052;DHT22;75382;46.706;12.340;2024-03-08T01:50:30;5.199999809265137;63.900001525878906
85052;DHT22;75382;46.706;12.340;2024-03-08T01:51:33;5.199999809265137;64.0
85052;DHT22;75382;46.706;12.340;2024-03-08T01:52:34;5.300000190734863;64.0
85052;DHT22;75382;46.706;12.340;2024-03-08T01:53:32;5.199999809265137;64.0
85052;DHT22;75382;46.706;12.340;2024-03-08T01:54:31;5.199999809265137;63.900001525878906
85052;DHT22;75382;46.706;12.340;2024-03-08T01:55:34;5.199999809265137;63.900001525878906
85052;DHT22;75382;46.706;12.340;2024-03-08T01:56:33;5.199999809265137;63.900001525878906
85052;DHT22;75382;46.706;12.340;2024-03-08T01:57:31;5.199999809265137;63.900001525878906
85052;DHT22;75382;46.706;12.340;2024-03-08T01:58:31;5.199999809265137;63.79999923706055
85052;DHT22;75382;46.706;12.340;2024-03-08T01:59:31;5.199999809265137;63.79999923706055
85052;DHT22;75382;46.706;12.340;2024-03-08T02:00:31;5.300000190734863;63.900001525878906
85052;DHT22;75382;46.706;12.340;2024-03-08T02:01:35;5.199999809265137;63.79999923706055
85052;DHT22;75382;46.706;12.340;2024-03-08T02:02:33;5.199999809265137;63.79999923706055
85052;DHT22;75382;46.706;12.340;2024-03-08T02:03:33;5.199999809265137;63.70000076293945
85052;DHT22;75382;46.706;12.340;2024-03-08T02:04:33;5.199999809265137;63.70000076293945
85052;DHT22;75382;46.706;12.340;2024-03-08T02:05:31;5.199999809265137;63.70000076293945
85052;DHT22;75382;46.706;12.340;2024-03-08T02:06:31;5.300000190734863;63.70000076293945
85052;DHT22;75382;46.706;12.340;2024-03-08T02:07:31;5.199999809265137;63.599998474121094
85052;DHT22;75382;46.706;12.340;2024-03-08T02:08:33;5.199999809265137;63.5
85052;DHT22;75382;46.706;12.340;2024-03-08T02:09:31;5.199999809265137;63.599998474121094
85052;DHT22;75382;46.706;12.340;2024-03-08T02:10:30;5.199999809265137;63.599998474121094
85052;DHT22;75382;46.706;12.340;2024-03-08T02:11:31;5.199999809265137;63.599998474121094
85052;DHT22;75382;46.706;12.340;2024-03-08T02:12:31;5.199999809265137;63.5
85052;DHT22;75382;46.706;12.340;2024-03-08T02:13:31;5.199999809265137;63.599998474121094
85052;DHT22;75382;46.706;12.340;2024-03-08T02:14:32;5.199999809265137;63.599998474121094
85052;DHT22;75382;46.706;12.340;2024-03-08T02:15:51;5.199999809265137;63.599998474121094
85052;DHT22;75382;46.706;12.340;2024-03-08T02:16:30;5.199999809265137;63.599998474121094
85052;DHT22;75382;46.706;12.340;2024-03-08T02:17:31;5.199999809265137;63.5
85052;DHT22;75382;46.706;12.340;2024-03-08T02:18:31;5.099999904632568;63.5
85052;DHT22;75382;46.706;12.340;2024-03-08T02:19:30;5.199999809265137;63.5
85052;DHT22;75382;46.706;12.340;2024-03-08T02:20:31;5.199999809265137;63.5
85052;DHT22;75382;46.706;12.340;2024-03-08T02:21:31;5.199999809265137;63.599998474121094
85052;DHT22;75382;46.706;12.340;2024-03-08T02:22:31;5.099999904632568;63.599998474121094
85052;DHT22;75382;46.706;12.340;2024-03-08T02:23:32;5.099999904632568;63.5
85052;DHT22;75382;46.706;12.340;2024-03-08T02:24:32;5.099999904632568;63.5
85052;DHT22;75382;46.706;12.340;2024-03-08T02:25:32;5.099999904632568;63.5
85052;DHT22;75382;46.706;12.340;2024-03-08T02:26:30;5.099999904632568;63.5
85052;DHT22;75382;46.706;12.340;2024-03-08T02:27:31;5.099999904632568;63.400001525878906
85052;DHT22;75382;46.706;12.340;2024-03-08T02:28:31;5.099999904632568;63.400001525878906
85052;DHT22;75382;46.706;12.340;2024-03-08T02:29:31;5.099999904632568;63.5
85052;DHT22;75382;46.706;12.340;2024-03-08T02:30:31;5.099999904632568;63.5
85052;DHT22;75382;46.706;12.340;2024-03-08T02:31:33;5.099999904632568;63.5
85052;DHT22;75382;46.706;12.340;2024-03-08T02:32:32;5.099999904632568;63.5
85052;DHT22;75382;46.706;12.340;2024-03-08T02:33:31;5.099999904632568;63.400001525878906
85052;DHT22;75382;46.706;12.340;2024-03-08T02:34:35;5.099999904632568;63.400001525878906
85052;DHT22;75382;46.706;12.340;2024-03-08T02:35:31;5.0;63.400001525878906
85052;DHT22;75382;46.706;12.340;2024-03-08T02:36:30;5.0;63.29999923706055
85052;DHT22;75382;46.706;12.340;2024-03-08T02:37:31;5.0;63.29999923706055
85052;DHT22;75382;46.706;12.340;2024-03-08T02:38:30;5.099999904632568;63.400001525878906
85052;DHT22;75382;46.706;12.340;2024-03-08T02:39:30;5.0;63.400001525878906
85052;DHT22;75382;46.706;12.340;2024-03-08T02:40:31;5.0;63.5
85052;DHT22;75382;46.706;12.340;2024-03-08T02:41:31;5.0;63.5
85052;DHT22;75382;46.706;12.340;2024-03-08T02:42:30;5.0;63.099998474121094
85052;DHT22;75382;46.706;12.340;2024-03-08T02:43:30;5.0;63.5
85052;DHT22;75382;46.706;12.340;2024-03-08T02:44:31;5.0;63.5
85052;DHT22;75382;46.706;12.340;2024-03-08T02:45:31;5.0;63.5
85052;DHT22;75382;46.706;12.340;2024-03-08T02:46:31;5.0;63.599998474121094
85052;DHT22;75382;46.706;12.340;2024-03-08T02:47:32;5.0;63.5
85052;DHT22;75382;46.706;12.340;2024-03-08T02:48:32;5.0;63.5
85052;DHT22;75382;46.706;12.340;2024-03-08T02:49:31;4.900000095367432;63.5
85052;DHT22;75382;46.706;12.340;2024-03-08T02:50:30;5.0;63.5
85052;DHT22;75382;46.706;12.340;2024-03-08T02:51:32;5.0;63.599998474121094
85052;DHT22;75382;46.706;12.340;2024-03-08T02:52:32;4.900000095367432;63.5
85052;DHT22;75382;46.706;12.340;2024-03-08T02:53:30;4.900000095367432;63.5
85052;DHT22;75382;46.706;12.340;2024-03-08T02:54:30;4.900000095367432;63.599998474121094
85052;DHT22;75382;46.706;12.340;2024-03-08T02:55:31;4.900000095367432;63.70000076293945
85052;DHT22;75382;46.706;12.340;2024-03-08T02:56:31;4.900000095367432;63.599998474121094
85052;DHT22;75382;46.706;12.340;2024-03-08T02:57:31;4.900000095367432;63.79999923706055
85052;DHT22;75382;46.706;12.340;2024-03-08T02:58:35;4.900000095367432;63.79999923706055
85052;DHT22;75382;46.706;12.340;2024-03-08T02:59:31;4.900000095367432;63.79999923706055
85052;DHT22;75382;46.706;12.340;2024-03-08T03:00:32;4.900000095367432;63.79999923706055
85052;DHT22;75382;46.706;12.340;2024-03-08T03:01:34;4.900000095367432;63.70000076293945
85052;DHT22;75382;46.706;12.340;2024-03-08T03:02:30;4.900000095367432;63.599998474121094
85052;DHT22;75382;46.706;12.340;2024-03-08T03:03:30;4.900000095367432;63.79999923706055
85052;DHT22;75382;46.706;12.340;2024-03-08T03:04:30;4.900000095367432;63.79999923706055
85052;DHT22;75382;46.706;12.340;2024-03-08T03:05:31;4.900000095367432;63.70000076293945
85052;DHT22;75382;46.706;12.340;2024-03-08T03:06:30;4.900000095367432;63.70000076293945
85052;DHT22;75382;46.706;12.340;2024-03-08T03:07:31;4.900000095367432;63.70000076293945
85052;DHT22;75382;46.706;12.340;2024-03-08T03:08:31;4.800000190734863;63.79999923706055
85052;DHT22;75382;46.706;12.340;2024-03-08T03:09:31;4.800000190734863;63.70000076293945
85052;DHT22;75382;46.706;12.340;2024-03-08T03:10:30;4.800000190734863;63.79999923706055
85052;DHT22;75382;46.706;12.340;2024-03-08T03:11:30;4.800000190734863;63.599998474121094
85052;DHT22;75382;46.706;12.340;2024-03-08T03:12:32;4.800000190734863;63.900001525878906
85052;DHT22;75382;46.706;12.340;2024-03-08T03:13:31;4.800000190734863;63.900001525878906
85052;DHT22;75382;46.706;12.340;2024-03-08T03:14:31;4.800000190734863;63.900001525878906
85052;DHT22;75382;46.706;12.340;2024-03-08T03:15:30;4.800000190734863;63.900001525878906
85052;DHT22;75382;46.706;12.340;2024-03-08T03:16:30;4.699999809265137;64.0
85052;DHT22;75382;46.706;12.340;2024-03-08T03:17:31;4.800000190734863;63.900001525878906
85052;DHT22;75382;46.706;12.340;2024-03-08T03:18:31;4.800000190734863;63.900001525878906
85052;DHT22;75382;46.706;12.340;2024-03-08T03:19:33;4.699999809265137;63.900001525878906
85052;DHT22;75382;46.706;12.340;2024-03-08T03:20:34;4.699999809265137;63.900001525878906
85052;DHT22;75382;46.706;12.340;2024-03-08T03:21:33;4.699999809265137;63.900001525878906
85052;DHT22;75382;46.706;12.340;2024-03-08T03:22:31;4.699999809265137;63.900001525878906
85052;DHT22;75382;46.706;12.340;2024-03-08T03:23:34;4.699999809265137;63.900001525878906
85052;DHT22;75382;46.706;12.340;2024-03-08T03:24:32;4.699999809265137;63.900001525878906
85052;DHT22;75382;46.706;12.340;2024-03-08T03:25:35;4.699999809265137;63.900001525878906
85052;DHT22;75382;46.706;12.340;2024-03-08T03:26:32;4.699999809265137;63.900001525878906
85052;DHT22;75382;46.706;12.340;2024-03-08T03:27:31;4.699999809265137;63.900001525878906
85052;DHT22;75382;46.706;12.340;2024-03-08T03:28:30;4.699999809265137;63.900001525878906
85052;DHT22;75382;46.706;12.340;2024-03-08T03:29:31;4.699999809265137;64.0
85052;DHT22;75382;46.706;12.340;2024-03-08T03:30:34;4.599999904632568;63.70000076293945
85052;DHT22;75382;46.706;12.340;2024-03-08T03:31:33;4.599999904632568;63.70000076293945
85052;DHT22;75382;46.706;12.340;2024-03-08T03:32:31;4.699999809265137;63.70000076293945
85052;DHT22;75382;46.706;12.340;2024-03-08T03:33:31;4.599999904632568;63.599998474121094
85052;DHT22;75382;46.706;12.340;2024-03-08T03:34:30;4.599999904632568;63.599998474121094
85052;DHT22;75382;46.706;12.340;2024-03-08T03:35:37;4.599999904632568;63.5
85052;DHT22;75382;46.706;12.340;2024-03-08T03:36:31;4.599999904632568;63.5
85052;DHT22;75382;46.706;12.340;2024-03-08T03:37:30;4.599999904632568;63.29999923706055
85052;DHT22;75382;46.706;12.340;2024-03-08T03:38:31;4.5;63.70000076293945
85052;DHT22;75382;46.706;12.340;2024-03-08T03:39:33;4.599999904632568;63.79999923706055
85052;DHT22;75382;46.706;12.340;2024-03-08T03:40:31;4.5;63.79999923706055
85052;DHT22;75382;46.706;12.340;2024-03-08T03:41:31;4.5;63.70000076293945
85052;DHT22;75382;46.706;12.340;2024-03-08T03:42:31;4.5;63.79999923706055
85052;DHT22;75382;46.706;12.340;2024-03-08T03:43:31;4.5;63.79999923706055
85052;DHT22;75382;46.706;12.340;2024-03-08T03:44:31;4.5;63.79999923706055
85052;DHT22;75382;46.706;12.340;2024-03-08T03:45:31;4.5;63.70000076293945
85052;DHT22;75382;46.706;12.340;2024-03-08T03:46:31;4.5;63.400001525878906
85052;DHT22;75382;46.706;12.340;2024-03-08T03:47:31;4.5;63.900001525878906
85052;DHT22;75382;46.706;12.340;2024-03-08T03:48:30;4.5;63.900001525878906
85052;DHT22;75382;46.706;12.340;2024-03-08T03:49:31;4.5;64.0
85052;DHT22;75382;46.706;12.340;2024-03-08T03:50:31;4.5;64.0
85052;DHT22;75382;46.706;12.340;2024-03-08T03:51:31;4.5;64.0
85052;DHT22;75382;46.706;12.340;2024-03-08T03:52:34;4.5;64.0999984741211
85052;DHT22;75382;46.706;12.340;2024-03-08T03:53:31;4.5;64.19999694824219
85052;DHT22;75382;46.706;12.340;2024-03-08T03:54:32;4.400000095367432;64.19999694824219
85052;DHT22;75382;46.706;12.340;2024-03-08T03:55:31;4.5;64.30000305175781
85052;DHT22;75382;46.706;12.340;2024-03-08T03:56:32;4.400000095367432;64.30000305175781
85052;DHT22;75382;46.706;12.340;2024-03-08T03:57:32;4.5;64.30000305175781
85052;DHT22;75382;46.706;12.340;2024-03-08T03:58:31;4.400000095367432;64.30000305175781
85052;DHT22;75382;46.706;12.340;2024-03-08T03:59:31;4.5;64.30000305175781
85052;DHT22;75382;46.706;12.340;2024-03-08T04:00:31;4.5;64.4000015258789
85052;DHT22;75382;46.706;12.340;2024-03-08T04:01:32;4.5;64.5
85052;DHT22;75382;46.706;12.340;2024-03-08T04:02:31;4.5;64.4000015258789
85052;DHT22;75382;46.706;12.340;2024-03-08T04:03:36;4.400000095367432;64.5
85052;DHT22;75382;46.706;12.340;2024-03-08T04:04:31;4.400000095367432;64.4000015258789
85052;DHT22;75382;46.706;12.340;2024-03-08T04:05:31;4.400000095367432;64.4000015258789
85052;DHT22;75382;46.706;12.340;2024-03-08T04:06:33;4.5;64.5
85052;DHT22;75382;46.706;12.340;2024-03-08T04:07:31;4.400000095367432;64.4000015258789
85052;DHT22;75382;46.706;12.340;2024-03-08T04:08:30;4.5;64.5
85052;DHT22;75382;46.706;12.340;2024-03-08T04:09:30;4.400000095367432;64.5
85052;DHT22;75382;46.706;12.340;2024-03-08T04:10:33;4.400000095367432;64.5999984741211
85052;DHT22;75382;46.706;12.340;2024-03-08T04:11:31;4.400000095367432;64.5999984741211
85052;DHT22;75382;46.706;12.340;2024-03-08T04:12:31;4.400000095367432;64.5999984741211
85052;DHT22;75382;46.706;12.340;2024-03-08T04:13:38;4.400000095367432;64.69999694824219
85052;DHT22;75382;46.706;12.340;2024-03-08T04:14:31;4.400000095367432;64.69999694824219
85052;DHT22;75382;46.706;12.340;2024-03-08T04:15:31;4.400000095367432;64.69999694824219
85052;DHT22;75382;46.706;12.340;2024-03-08T04:16:31;4.400000095367432;64.5999984741211
85052;DHT22;75382;46.706;12.340;2024-03-08T04:17:31;4.400000095367432;64.5999984741211
85052;DHT22;75382;46.706;12.340;2024-03-08T04:18:31;4.400000095367432;64.69999694824219
85052;DHT22;75382;46.706;12.340;2024-03-08T04:19:30;4.400000095367432;64.69999694824219
85052;DHT22;75382;46.706;12.340;2024-03-08T04:20:32;4.400000095367432;64.69999694824219
85052;DHT22;75382;46.706;12.340;2024-03-08T04:21:31;4.400000095367432;64.5999984741211
85052;DHT22;75382;46.706;12.340;2024-03-08T04:22:31;4.400000095367432;64.69999694824219
85052;DHT22;75382;46.706;12.340;2024-03-08T04:23:31;4.400000095367432;64.5999984741211
85052;DHT22;75382;46.706;12.340;2024-03-08T04:24:33;4.400000095367432;64.5
85052;DHT22;75382;46.706;12.340;2024-03-08T04:25:30;4.400000095367432;64.5999984741211
85052;DHT22;75382;46.706;12.340;2024-03-08T04:26:31;4.400000095367432;64.5999984741211
85052;DHT22;75382;46.706;12.340;2024-03-08T04:27:32;4.400000095367432;64.5
85052;DHT22;75382;46.706;12.340;2024-03-08T04:28:36;4.400000095367432;64.5
85052;DHT22;75382;46.706;12.340;2024-03-08T04:29:31;4.400000095367432;64.5
85052;DHT22;75382;46.706;12.340;2024-03-08T04:30:31;4.400000095367432;64.5
85052;DHT22;75382;46.706;12.340;2024-03-08T04:31:32;4.400000095367432;64.5999984741211
85052;DHT22;75382;46.706;12.340;2024-03-08T04:32:36;4.300000190734863;64.5
85052;DHT22;75382;46.706;12.340;2024-03-08T04:33:30;4.400000095367432;64.5
85052;DHT22;75382;46.706;12.340;2024-03-08T04:34:33;4.400000095367432;64.5
85052;DHT22;75382;46.706;12.340;2024-03-08T04:35:31;4.400000095367432;64.5
85052;DHT22;75382;46.706;12.340;2024-03-08T04:36:31;4.300000190734863;64.5
85052;DHT22;75382;46.706;12.340;2024-03-08T04:37:31;4.400000095367432;64.5999984741211
85052;DHT22;75382;46.706;12.340;2024-03-08T04:38:31;4.400000095367432;64.5999984741211
85052;DHT22;75382;46.706;12.340;2024-03-08T04:39:32;4.300000190734863;64.5
85052;DHT22;75382;46.706;12.340;2024-03-08T04:40:31;4.300000190734863;64.5
85052;DHT22;75382;46.706;12.340;2024-03-08T04:41:31;4.300000190734863;64.5
85052;DHT22;75382;46.706;12.340;2024-03-08T04:42:31;4.300000190734863;64.4000015258789
85052;DHT22;75382;46.706;12.340;2024-03-08T04:43:31;4.300000190734863;64.5
85052;DHT22;75382;46.706;12.340;2024-03-08T04:44:36;4.400000095367432;64.5999984741211
85052;DHT22;75382;46.706;12.340;2024-03-08T04:45:31;4.300000190734863;64.5999984741211
85052;DHT22;75382;46.706;12.340;2024-03-08T04:46:36;4.400000095367432;64.5999984741211
85052;DHT22;75382;46.706;12.340;2024-03-08T04:47:31;4.300000190734863;64.5999984741211
85052;DHT22;75382;46.706;12.340;2024-03-08T04:48:33;4.300000190734863;64.5999984741211